createdAt,value
2017-10-17T00:00:05.094Z,7.70
2017-10-17T00:02:32.651Z,8.03
2017-10-17T00:05:00.375Z,9.50
2017-10-17T00:07:27.991Z,7.47
2017-10-17T00:09:55.608Z,10.23
2017-10-17T00:12:23.234Z,8.83
2017-10-17T00:14:50.900Z,5.87
2017-10-17T00:17:20.073Z,11.40
2017-10-17T00:19:47.723Z,6.37
2017-10-17T00:22:15.364Z,14.03
2017-10-17T00:24:42.973Z,10.97
2017-10-17T00:27:10.895Z,8.17
2017-10-17T00:29:38.733Z,9.97
2017-10-17T00:32:06.478Z,8.47
2017-10-17T00:34:34.126Z,8.87
2017-10-17T00:37:01.837Z,7.50
2017-10-17T00:39:29.541Z,8.23
2017-10-17T00:41:57.127Z,8.17
2017-10-17T00:44:24.767Z,7.13
2017-10-17T00:46:52.519Z,5.17
2017-10-17T00:49:27.915Z,8.57
2017-10-17T00:51:55.687Z,9.67
2017-10-17T00:54:23.266Z,10.77
2017-10-17T00:56:50.876Z,5.90
2017-10-17T00:59:18.539Z,11.93
2017-10-17T01:01:46.235Z,8.00
2017-10-17T01:04:13.930Z,11.97
2017-10-17T01:06:41.682Z,8.90
2017-10-17T01:09:10.104Z,5.73
2017-10-17T01:11:37.923Z,10.20
2017-10-17T01:14:05.685Z,11.57
2017-10-17T01:16:33.328Z,7.83
2017-10-17T01:19:00.973Z,6.50
2017-10-17T01:21:28.750Z,7.10
2017-10-17T01:24:08.220Z,9.03
2017-10-17T01:26:35.876Z,8.97
2017-10-17T01:29:15.155Z,7.20
2017-10-17T01:31:42.752Z,9.13
2017-10-17T01:34:10.535Z,10.20
2017-10-17T01:36:41.986Z,11.07
2017-10-17T01:39:09.596Z,5.80
2017-10-17T01:41:37.200Z,10.00
2017-10-17T01:44:09.129Z,6.50
2017-10-17T01:46:48.755Z,5.83
2017-10-17T01:49:31.230Z,5.87
2017-10-17T01:52:14.441Z,8.57
2017-10-17T01:54:53.853Z,6.50
2017-10-17T01:57:21.835Z,5.90
2017-10-17T02:00:04.336Z,7.80
2017-10-17T02:02:32.119Z,11.93
2017-10-17T02:05:01.929Z,7.63
2017-10-17T02:07:29.961Z,9.50
2017-10-17T02:10:01.086Z,7.27
2017-10-17T02:12:28.682Z,5.70
2017-10-17T02:14:56.350Z,9.47
2017-10-17T02:17:23.986Z,10.00
2017-10-17T02:19:51.626Z,10.40
2017-10-17T02:22:20.130Z,9.33
2017-10-17T02:24:50.445Z,5.70
2017-10-17T02:27:18.879Z,8.03
2017-10-17T02:29:49.969Z,6.67
2017-10-17T02:32:17.637Z,9.50
2017-10-17T02:34:47.915Z,8.00
2017-10-17T02:37:15.568Z,5.70
2017-10-17T02:39:43.225Z,9.03
2017-10-17T02:42:10.818Z,7.40
2017-10-17T02:44:38.479Z,7.80
2017-10-17T02:47:06.854Z,8.30
2017-10-17T02:49:42.538Z,10.20
2017-10-17T02:55:16.618Z,6.23
2017-10-17T02:57:44.330Z,9.43
2017-10-17T03:00:21.843Z,8.50
2017-10-17T03:02:49.483Z,5.67
2017-10-17T03:05:17.933Z,6.07
2017-10-17T03:07:52.122Z,7.30
2017-10-17T03:10:19.953Z,9.50
2017-10-17T03:12:47.553Z,7.60
2017-10-17T03:15:18.946Z,6.23
2017-10-17T03:17:46.559Z,11.23
2017-10-17T03:20:14.159Z,6.73
2017-10-17T03:22:41.755Z,13.43
2017-10-17T03:25:18.774Z,6.33
2017-10-17T03:27:49.306Z,7.27
2017-10-17T03:30:16.943Z,6.90
2017-10-17T03:32:47.494Z,10.80
2017-10-17T03:35:16.083Z,12.23
2017-10-17T03:37:49.632Z,12.83
2017-10-17T03:40:21.865Z,11.43
2017-10-17T03:42:53.280Z,9.57
2017-10-17T03:45:21.135Z,6.87
2017-10-17T03:47:51.449Z,5.87
2017-10-17T03:50:22.752Z,10.00
2017-10-17T03:52:50.399Z,6.00
2017-10-17T03:55:17.994Z,7.00
2017-10-17T03:57:48.408Z,11.20
2017-10-17T04:00:16.909Z,9.17
2017-10-17T04:02:44.992Z,12.80
2017-10-17T04:05:16.948Z,8.93
2017-10-17T04:10:50.511Z,12.87
2017-10-17T04:13:29.033Z,7.17
2017-10-17T04:15:56.620Z,8.87
2017-10-17T04:21:41.139Z,9.37
2017-10-17T04:24:08.791Z,5.80
2017-10-17T04:26:36.427Z,10.97
2017-10-17T04:29:11.211Z,7.37
2017-10-17T04:31:53.804Z,11.80
2017-10-17T04:34:28.293Z,11.50
2017-10-17T04:36:59.555Z,9.17
2017-10-17T04:39:27.144Z,7.50
2017-10-17T04:42:02.478Z,8.27
2017-10-17T04:44:41.874Z,8.03
2017-10-17T04:47:10.394Z,9.97
2017-10-17T04:52:40.288Z,8.03
2017-10-17T04:55:08.426Z,8.83
2017-10-17T04:57:45.960Z,10.50
2017-10-17T05:00:14.455Z,6.47
2017-10-17T05:03:03.773Z,11.60
2017-10-17T05:05:42.963Z,18.10
2017-10-17T05:08:17.401Z,7.60
2017-10-17T05:13:59.823Z,10.40
2017-10-17T05:16:35.727Z,10.90
2017-10-17T05:19:13.827Z,12.97
2017-10-17T05:21:41.482Z,10.33
2017-10-17T05:24:20.246Z,7.63
2017-10-17T05:26:47.924Z,9.27
2017-10-17T05:29:19.363Z,16.10
2017-10-17T05:31:47.707Z,16.70
2017-10-17T05:34:20.088Z,11.80
2017-10-17T05:39:43.713Z,7.33
2017-10-17T05:42:11.338Z,17.27
2017-10-17T05:44:42.414Z,6.30
2017-10-17T05:47:13.777Z,11.80
2017-10-17T05:49:45.999Z,9.10
2017-10-17T05:52:13.694Z,8.87
2017-10-17T05:54:41.260Z,15.80
2017-10-17T05:57:08.856Z,17.87
2017-10-17T05:59:36.579Z,6.93
2017-10-17T06:02:04.219Z,9.53
2017-10-17T06:04:32.189Z,12.33
2017-10-17T06:06:59.758Z,15.67
2017-10-17T06:09:27.399Z,10.60
2017-10-17T06:11:57.916Z,9.00
2017-10-17T06:14:25.670Z,21.43
2017-10-17T06:16:53.326Z,20.53
2017-10-17T06:19:21.025Z,14.63
2017-10-17T06:21:49.012Z,24.67
2017-10-17T06:24:27.362Z,15.17
2017-10-17T06:26:54.953Z,22.27
2017-10-17T06:29:22.623Z,10.23
2017-10-17T06:31:50.364Z,9.40
2017-10-17T06:34:17.937Z,14.93
2017-10-17T06:36:45.732Z,10.90
2017-10-17T06:39:13.260Z,11.90
2017-10-17T06:41:40.855Z,12.53
2017-10-17T06:44:08.389Z,15.60
2017-10-17T06:46:36.024Z,24.67
2017-10-17T06:49:04.240Z,23.37
2017-10-17T06:51:31.817Z,16.07
2017-10-17T06:53:59.408Z,18.00
2017-10-17T06:56:26.980Z,11.03
2017-10-17T06:58:54.987Z,9.97
2017-10-17T07:01:22.789Z,21.70
2017-10-17T07:03:50.405Z,12.23
2017-10-17T07:06:17.957Z,12.90
2017-10-17T07:08:45.508Z,8.97
2017-10-17T07:11:13.233Z,7.63
2017-10-17T07:13:40.760Z,5.20
2017-10-17T07:16:08.324Z,11.30
2017-10-17T07:18:35.859Z,6.90
2017-10-17T07:21:03.447Z,13.07
2017-10-17T07:23:31.062Z,36.03
2017-10-17T07:25:58.618Z,19.80
2017-10-17T07:28:26.161Z,16.23
2017-10-17T07:30:53.711Z,9.00
2017-10-17T07:33:21.687Z,13.00
2017-10-17T07:35:49.225Z,8.67
2017-10-17T07:38:16.820Z,13.23
2017-10-17T07:40:44.352Z,9.20
2017-10-17T07:43:11.908Z,12.50
2017-10-17T07:45:39.926Z,10.83
2017-10-17T07:48:07.465Z,9.00
2017-10-17T07:50:35.041Z,14.13
2017-10-17T07:53:02.622Z,12.93
2017-10-17T07:55:30.184Z,17.20
2017-10-17T07:57:57.732Z,17.67
2017-10-17T08:00:25.292Z,7.57
2017-10-17T08:02:52.827Z,10.47
2017-10-17T08:05:20.405Z,13.80
2017-10-17T08:07:47.972Z,19.87
2017-10-17T08:10:15.540Z,12.47
2017-10-17T08:12:43.084Z,15.30
2017-10-17T08:15:10.715Z,17.27
2017-10-17T08:17:38.256Z,15.33
2017-10-17T08:20:05.821Z,17.33
2017-10-17T08:22:33.361Z,16.00
2017-10-17T08:25:00.897Z,14.40
2017-10-17T08:27:28.494Z,6.77
2017-10-17T08:29:56.036Z,12.73
2017-10-17T08:32:23.555Z,12.87
2017-10-17T08:34:51.102Z,10.00
2017-10-17T08:37:18.661Z,7.60
2017-10-17T08:39:46.220Z,9.10
2017-10-17T08:42:13.793Z,12.83
2017-10-17T08:44:41.332Z,6.97
2017-10-17T08:47:08.943Z,8.73
2017-10-17T08:49:36.569Z,15.37
2017-10-17T08:52:04.145Z,17.43
2017-10-17T08:54:31.707Z,12.13
2017-10-17T08:56:59.232Z,8.17
2017-10-17T08:59:26.779Z,14.30
2017-10-17T09:01:54.354Z,11.50
2017-10-17T09:04:22.346Z,8.90
2017-10-17T09:06:49.892Z,10.13
2017-10-17T09:09:17.645Z,10.33
2017-10-17T09:11:45.250Z,12.33
2017-10-17T09:14:12.829Z,13.37
2017-10-17T09:16:40.418Z,11.60
2017-10-17T09:19:07.979Z,14.30
2017-10-17T09:21:35.523Z,9.87
2017-10-17T09:24:03.079Z,11.40
2017-10-17T09:26:30.631Z,7.93
2017-10-17T09:28:58.180Z,12.63
2017-10-17T09:31:26.045Z,17.33
2017-10-17T09:33:53.594Z,13.63
2017-10-17T09:39:11.274Z,8.23
2017-10-17T09:41:38.840Z,16.33
2017-10-17T09:44:06.398Z,12.20
2017-10-17T09:46:33.918Z,12.30
2017-10-17T09:49:01.484Z,24.23
2017-10-17T09:51:30.187Z,13.47
2017-10-17T09:53:57.750Z,11.60
2017-10-17T09:56:25.318Z,12.27
2017-10-17T09:58:52.851Z,7.50
2017-10-17T10:01:20.404Z,10.07
2017-10-17T10:03:47.968Z,6.13
2017-10-17T10:08:49.393Z,10.30
2017-10-17T10:11:16.931Z,5.50
2017-10-17T10:13:44.465Z,16.90
2017-10-17T10:16:12.074Z,8.33
2017-10-17T10:18:39.724Z,14.43
2017-10-17T10:21:07.257Z,7.33
2017-10-17T10:23:34.816Z,5.50
2017-10-17T10:26:02.861Z,4.83
2017-10-17T10:28:30.499Z,6.10
2017-10-17T10:30:58.125Z,5.23
2017-10-17T10:33:25.674Z,5.63
2017-10-17T10:35:53.242Z,6.53
2017-10-17T10:38:20.880Z,4.73
2017-10-17T10:40:48.676Z,7.20
2017-10-17T10:43:16.452Z,4.93
2017-10-17T10:45:44.045Z,5.20
2017-10-17T10:48:12.140Z,6.00
2017-10-17T10:50:40.210Z,5.63
2017-10-17T10:53:07.789Z,7.03
2017-10-17T10:55:35.353Z,4.33
2017-10-17T10:58:03.542Z,3.43
2017-10-17T11:00:31.226Z,5.23
2017-10-17T11:02:58.766Z,5.30
2017-10-17T11:05:26.302Z,8.87
2017-10-17T11:07:53.886Z,5.17
2017-10-17T11:10:21.439Z,5.83
2017-10-17T11:12:49.000Z,8.53
2017-10-17T11:15:16.551Z,9.00
2017-10-17T11:17:44.095Z,6.63
2017-10-17T11:20:11.760Z,4.63
2017-10-17T11:22:39.343Z,7.43
2017-10-17T11:25:07.276Z,6.30
2017-10-17T11:27:34.846Z,4.43
2017-10-17T11:30:02.422Z,6.23
2017-10-17T11:32:29.944Z,5.37
2017-10-17T11:34:57.506Z,4.90
2017-10-17T11:37:25.101Z,5.17
2017-10-17T11:39:52.643Z,5.10
2017-10-17T11:42:31.899Z,4.57
2017-10-17T11:44:59.462Z,7.10
2017-10-17T11:47:27.037Z,4.93
2017-10-17T11:49:54.642Z,6.87
2017-10-17T11:52:22.789Z,5.23
2017-10-17T11:54:50.347Z,5.33
2017-10-17T11:57:17.933Z,5.87
2017-10-17T11:59:45.473Z,4.93
2017-10-17T12:02:13.019Z,6.60
2017-10-17T12:04:40.663Z,9.20
2017-10-17T12:07:08.208Z,7.00
2017-10-17T12:09:35.805Z,6.97
2017-10-17T12:12:03.389Z,27.87
2017-10-17T12:14:30.921Z,7.70
2017-10-17T12:16:58.531Z,6.63
2017-10-17T12:19:26.398Z,16.30
2017-10-17T12:21:53.939Z,10.43
2017-10-17T12:24:22.259Z,8.87
2017-10-17T12:26:49.822Z,6.33
2017-10-17T12:29:17.394Z,6.67
2017-10-17T12:31:44.965Z,9.67
2017-10-17T12:34:12.653Z,7.07
2017-10-17T12:36:40.194Z,9.30
2017-10-17T12:39:07.852Z,8.63
2017-10-17T12:41:35.807Z,13.23
2017-10-17T12:44:03.483Z,7.17
2017-10-17T12:46:31.040Z,7.50
2017-10-17T12:48:58.603Z,10.13
2017-10-17T12:51:26.618Z,6.50
2017-10-17T12:53:54.381Z,8.90
2017-10-17T12:56:22.373Z,8.73
2017-10-17T12:58:49.962Z,7.23
2017-10-17T13:01:17.510Z,10.17
2017-10-17T13:03:45.047Z,9.97
2017-10-17T13:06:12.606Z,6.63
2017-10-17T13:08:40.131Z,7.10
2017-10-17T13:11:07.738Z,10.43
2017-10-17T13:13:35.467Z,7.53
2017-10-17T13:16:03.328Z,11.20
2017-10-17T13:18:30.868Z,6.63
2017-10-17T13:20:58.425Z,14.47
2017-10-17T13:23:26.488Z,10.43
2017-10-17T13:25:54.040Z,8.27
2017-10-17T13:28:21.616Z,8.27
2017-10-17T13:30:49.171Z,11.87
2017-10-17T13:33:16.715Z,10.27
2017-10-17T13:35:44.290Z,16.70
2017-10-17T13:38:11.829Z,14.20
2017-10-17T13:40:39.426Z,17.33
2017-10-17T13:43:07.817Z,14.03
2017-10-17T13:45:35.365Z,15.47
2017-10-17T13:48:02.896Z,10.50
2017-10-17T13:50:30.777Z,13.37
2017-10-17T13:52:58.308Z,12.27
2017-10-17T13:55:25.979Z,12.27
2017-10-17T13:57:53.561Z,19.60
2017-10-17T14:00:21.107Z,14.50
2017-10-17T14:02:48.640Z,10.97
2017-10-17T14:05:16.225Z,11.10
2017-10-17T14:07:44.066Z,10.60
2017-10-17T14:10:12.585Z,12.47
2017-10-17T14:12:40.129Z,11.50
2017-10-17T14:15:07.702Z,15.37
2017-10-17T14:17:35.805Z,11.87
2017-10-17T14:20:03.900Z,12.30
2017-10-17T14:22:31.473Z,12.40
2017-10-17T14:24:59.012Z,10.33
2017-10-17T14:27:26.573Z,12.43
2017-10-17T14:29:54.737Z,14.13
2017-10-17T14:32:22.330Z,12.63
2017-10-17T14:34:49.905Z,16.37
2017-10-17T14:37:17.437Z,12.53
2017-10-17T14:39:45.507Z,20.20
2017-10-17T14:42:13.135Z,16.83
2017-10-17T14:44:40.682Z,11.60
2017-10-17T14:47:08.233Z,20.53
2017-10-17T14:49:36.042Z,14.13
2017-10-17T14:52:03.610Z,16.70
2017-10-17T14:54:31.155Z,14.97
2017-10-17T14:56:59.296Z,14.90
2017-10-17T14:59:26.844Z,44.90
2017-10-17T15:01:54.386Z,23.33
2017-10-17T15:04:22.357Z,17.53
2017-10-17T15:06:49.900Z,16.63
2017-10-17T15:09:17.450Z,27.63
2017-10-17T15:11:45.024Z,25.13
2017-10-17T15:14:12.549Z,25.20
2017-10-17T15:16:40.096Z,18.73
2017-10-17T15:19:10.214Z,27.73
2017-10-17T15:21:37.772Z,79.80
2017-10-17T15:24:05.308Z,24.70
2017-10-17T15:26:32.860Z,11.33
2017-10-17T15:29:00.390Z,16.20
2017-10-17T15:31:27.916Z,12.67
2017-10-17T15:33:55.469Z,24.10
2017-10-17T15:36:23.548Z,17.67
2017-10-17T15:38:51.082Z,13.20
2017-10-17T15:41:18.639Z,24.90
2017-10-17T15:43:46.191Z,12.47
2017-10-17T15:46:13.838Z,19.13
2017-10-17T15:48:41.441Z,15.93
2017-10-17T15:51:09.161Z,10.50
2017-10-17T15:53:36.699Z,9.50
2017-10-17T15:56:04.249Z,14.83
2017-10-17T15:58:31.787Z,14.97
2017-10-17T16:00:59.332Z,16.80
2017-10-17T16:03:27.233Z,17.10
2017-10-17T16:05:54.812Z,11.90
2017-10-17T16:08:22.342Z,18.20
2017-10-17T16:10:49.895Z,20.53
2017-10-17T16:13:17.425Z,12.23
2017-10-17T16:15:44.945Z,13.20
2017-10-17T16:18:12.488Z,17.93
2017-10-17T16:20:40.030Z,10.70
2017-10-17T16:23:07.600Z,10.90
2017-10-17T16:25:35.168Z,12.30
2017-10-17T16:28:02.732Z,14.57
2017-10-17T16:30:30.845Z,16.83
2017-10-17T16:32:58.583Z,17.17
2017-10-17T16:35:26.175Z,13.67
2017-10-17T16:37:53.746Z,11.60
2017-10-17T16:40:21.446Z,13.43
2017-10-17T16:42:49.000Z,13.73
2017-10-17T16:45:16.606Z,11.67
2017-10-17T16:47:44.213Z,12.67
2017-10-17T16:50:11.955Z,12.57
2017-10-17T16:52:39.530Z,15.27
2017-10-17T16:55:07.133Z,18.50
2017-10-17T16:57:34.797Z,16.63
2017-10-17T17:00:02.873Z,22.63
2017-10-17T17:02:30.729Z,13.00
2017-10-17T17:04:58.413Z,13.93
2017-10-17T17:07:26.083Z,15.50
2017-10-17T17:09:53.775Z,18.30
2017-10-17T17:12:22.129Z,17.03
2017-10-17T17:14:49.716Z,14.10
2017-10-17T17:17:17.327Z,15.70
2017-10-17T17:19:44.921Z,17.20
2017-10-17T17:22:12.502Z,17.13
2017-10-17T17:24:50.867Z,16.37
2017-10-17T17:27:18.479Z,16.60
2017-10-17T17:29:46.238Z,15.27
2017-10-17T17:32:13.857Z,18.23
2017-10-17T17:34:41.427Z,25.40
2017-10-17T17:37:09.143Z,20.33
2017-10-17T17:39:36.764Z,23.20
2017-10-17T17:42:04.396Z,19.40
2017-10-17T17:44:31.975Z,22.20
2017-10-17T17:46:59.584Z,23.90
2017-10-17T17:49:27.223Z,25.97
2017-10-17T17:51:54.826Z,33.50
2017-10-17T17:54:22.483Z,26.07
2017-10-17T17:56:50.085Z,36.83
2017-10-17T17:59:17.768Z,38.70
2017-10-17T18:01:45.532Z,34.40
2017-10-17T18:04:13.217Z,29.70
2017-10-17T18:06:40.988Z,33.80
2017-10-17T18:09:08.595Z,31.10
2017-10-17T18:11:36.314Z,33.37
2017-10-17T18:14:03.914Z,32.20
2017-10-17T18:16:31.582Z,36.13
2017-10-17T18:18:59.346Z,37.33
2017-10-17T18:21:37.845Z,29.33
2017-10-17T18:24:05.447Z,33.67
2017-10-17T18:26:33.023Z,33.13
2017-10-17T18:29:00.637Z,29.67
2017-10-17T18:31:28.211Z,41.17
2017-10-17T18:33:55.776Z,31.60
2017-10-17T18:36:23.364Z,41.07
2017-10-17T18:38:50.951Z,31.43
2017-10-17T18:41:18.554Z,38.73
2017-10-17T18:43:46.234Z,34.20
2017-10-17T18:49:03.886Z,40.43
2017-10-17T18:51:31.519Z,34.63
2017-10-17T18:53:59.181Z,35.40
2017-10-17T18:56:26.844Z,37.80
2017-10-17T18:58:54.765Z,31.47
2017-10-17T19:01:22.338Z,35.10
2017-10-17T19:03:49.948Z,33.90
2017-10-17T19:06:17.612Z,35.80
2017-10-17T19:08:45.176Z,36.70
2017-10-17T19:11:13.026Z,40.70
2017-10-17T19:13:40.601Z,41.30
2017-10-17T19:16:08.196Z,35.47
2017-10-17T19:18:35.839Z,38.83
2017-10-17T19:21:03.441Z,36.53
2017-10-17T19:23:31.056Z,35.10
2017-10-17T19:25:58.834Z,41.63
2017-10-17T19:28:26.455Z,47.17
2017-10-17T19:30:54.060Z,46.63
2017-10-17T19:33:21.639Z,35.83
2017-10-17T19:35:49.298Z,40.60
2017-10-17T19:38:16.979Z,41.03
2017-10-17T19:40:44.580Z,40.57
2017-10-17T19:43:12.280Z,40.33
2017-10-17T19:45:39.869Z,46.97
2017-10-17T19:48:07.582Z,46.23
2017-10-17T19:50:35.311Z,42.23
2017-10-17T19:53:02.964Z,34.80
2017-10-17T19:55:30.577Z,38.53
2017-10-17T19:57:58.215Z,42.57
2017-10-17T20:00:25.868Z,45.37
2017-10-17T20:02:53.454Z,39.90
2017-10-17T20:05:21.075Z,37.53
2017-10-17T20:07:48.678Z,43.83
2017-10-17T20:10:16.258Z,41.77
2017-10-17T20:12:43.885Z,38.87
2017-10-17T20:15:11.548Z,41.70
2017-10-17T20:17:39.138Z,43.33
2017-10-17T20:20:06.744Z,33.23
2017-10-17T20:22:34.318Z,52.93
2017-10-17T20:25:02.669Z,53.30
2017-10-17T20:30:22.387Z,55.27
2017-10-17T20:32:49.982Z,50.93
2017-10-17T20:35:17.644Z,63.40
2017-10-17T20:37:45.241Z,65.73
2017-10-17T20:40:12.849Z,57.47
2017-10-17T20:42:40.457Z,56.67
2017-10-17T20:45:08.090Z,54.90
2017-10-17T20:47:35.702Z,64.37
2017-10-17T20:50:03.327Z,55.10
2017-10-17T20:52:30.915Z,50.40
2017-10-17T20:54:58.524Z,46.47
2017-10-17T20:57:26.766Z,41.93
2017-10-17T20:59:54.513Z,49.27
2017-10-17T21:05:12.544Z,55.10
2017-10-17T21:07:40.185Z,51.33
2017-10-17T21:10:07.754Z,57.00
2017-10-17T21:12:35.358Z,54.03
2017-10-17T21:15:03.784Z,60.40
2017-10-17T21:17:31.387Z,48.13
2017-10-17T21:19:58.974Z,55.83
2017-10-17T21:22:27.328Z,52.07
2017-10-17T21:24:54.902Z,48.10
2017-10-17T21:27:22.491Z,53.43
2017-10-17T21:29:50.118Z,56.00
2017-10-17T21:32:17.718Z,53.33
2017-10-17T21:34:45.292Z,55.90
2017-10-17T21:37:12.882Z,64.80
2017-10-17T21:39:40.465Z,58.20
2017-10-17T21:42:08.066Z,55.20
2017-10-17T21:44:35.690Z,70.60
2017-10-17T21:47:03.425Z,62.70
2017-10-17T21:49:31.019Z,58.57
2017-10-17T21:51:58.598Z,52.30
2017-10-17T21:54:26.195Z,51.17
2017-10-17T21:56:53.785Z,54.83
2017-10-17T21:59:21.387Z,49.73
2017-10-17T22:01:48.965Z,47.93
2017-10-17T22:04:16.686Z,51.73
2017-10-17T22:06:44.248Z,52.27
2017-10-17T22:09:11.817Z,56.03
2017-10-17T22:11:39.407Z,57.30
2017-10-17T22:14:06.977Z,54.37
2017-10-17T22:16:34.550Z,52.47
2017-10-17T22:19:02.996Z,53.00
2017-10-17T22:21:30.642Z,54.13
2017-10-17T22:23:58.242Z,59.60
2017-10-17T22:26:25.850Z,54.67
2017-10-17T22:28:53.573Z,61.13
2017-10-17T22:31:21.158Z,55.20
2017-10-17T22:33:48.739Z,65.67
2017-10-17T22:36:16.297Z,55.70
2017-10-17T22:38:43.906Z,49.30
2017-10-17T22:41:11.505Z,60.00
2017-10-17T22:43:39.111Z,59.43
2017-10-17T22:46:06.844Z,50.50
2017-10-17T22:48:34.451Z,47.07
2017-10-17T22:51:02.020Z,53.53
2017-10-17T22:53:29.567Z,47.33
2017-10-17T22:55:57.151Z,63.57
2017-10-17T22:58:24.745Z,53.47
2017-10-17T23:00:52.351Z,56.57
2017-10-17T23:03:19.946Z,55.73
2017-10-17T23:05:47.557Z,55.17
2017-10-17T23:08:15.133Z,53.77
2017-10-17T23:10:42.714Z,54.70
2017-10-17T23:13:10.309Z,49.80
2017-10-17T23:15:37.926Z,57.30
2017-10-17T23:18:17.120Z,50.23
2017-10-17T23:23:34.983Z,57.67
2017-10-17T23:26:02.540Z,55.33
2017-10-17T23:28:30.120Z,51.40
2017-10-17T23:30:57.731Z,50.43
2017-10-17T23:33:25.292Z,40.90
2017-10-17T23:35:52.869Z,42.13
2017-10-17T23:38:20.465Z,40.83
2017-10-17T23:40:48.066Z,35.00
2017-10-17T23:43:15.704Z,46.17
2017-10-17T23:45:43.314Z,52.77
2017-10-17T23:48:10.902Z,49.73
2017-10-17T23:50:38.491Z,47.13
2017-10-17T23:53:06.126Z,45.70
2017-10-17T23:55:33.721Z,47.10
2017-10-17T23:58:01.316Z,51.43
